Pentz, California
Current Conditions -  °F | °C
As of 9:53 AM on Friday 28 Nov 2014 (Local Time) from KOVE Reporting Station
Clear Clear  
Wind Chill: 45°   Ceiling: Unl
Heat Index: 49°   Visibility: 10mi
Dew Point: 43°   Wind: 9mph
Humidity: 80%   Direction: 110°ESE
Pressure: 30.03"   Gusts: NA
Location:  39.5324°N, 121.648°W
Report Text: KOVE 281753Z AUTO 11008KT 10SM CLR 09/06 A3003 RMK AO2 SLP170 T00940061 10094 20044 53012
Loading
Personal Weather Stations






























Interactive Weather Map New forecast layout! Learn more

10-Day Weather Forecast

Advertisements
Track Severe Weather on mobile